Time;durP1;ratioP1;P1;durP2;ratioP2;P2;SDS_P1;SDS_P2;PMS_P1;PMS_P2;Temp;Humidity;BMP_temperature;BMP_pressure;BME280_temperature;BME280_humidity;BME280_pressure;Samples;Min_cycle;Max_cycle;Signal;HPM_P1;HPM_P2
2021/12/13 00:01:36;;;;;;;9.70;4.32;;;6.20;90.30;;;;;;5089101;28;20042;-67
2021/12/13 00:04:17;;;;;;;8.32;3.97;;;6.10;90.20;;;;;;5093237;28;20628;-65
2021/12/13 00:07:13;;;;;;;5.86;3.19;;;6.20;90.20;;;;;;2184562;28;10151032;-66
2021/12/13 00:09:49;;;;;;;7.22;3.70;;;6.20;90.20;;;;;;3668402;28;10001721;-65
2021/12/13 00:12:28;;;;;;;6.70;3.40;;;6.20;90.20;;;;;;5066430;28;20044;-66
2021/12/13 00:15:11;;;;;;;7.38;3.40;;;6.20;90.20;;;;;;5064568;28;20041;-65
2021/12/13 00:17:40;;;;;;;5.47;3.58;;;6.20;90.20;;;;;;5066129;28;20044;-69
2021/12/13 00:20:15;;;;;;;7.15;3.53;;;6.20;90.30;;;;;;5066369;28;20045;-68
2021/12/13 00:22:45;;;;;;;6.55;3.65;;;6.20;90.20;;;;;;5064585;28;20044;-65
2021/12/13 00:25:18;;;;;;;7.55;3.30;;;6.20;90.30;;;;;;5060011;28;20044;-67
2021/12/13 00:27:49;;;;;;;5.20;2.80;;;6.20;90.20;;;;;;5062784;28;20482;-67
2021/12/13 00:30:25;;;;;;;7.82;3.15;;;6.20;90.30;;;;;;5061283;28;20044;-67
2021/12/13 00:33:12;;;;;;;6.97;3.30;;;6.20;90.30;;;;;;5063678;28;20512;-67
2021/12/13 00:35:46;;;;;;;4.97;2.67;;;6.20;90.30;;;;;;5060131;28;20116;-68
2021/12/13 00:38:15;;;;;;;5.15;2.72;;;6.20;90.30;;;;;;5061949;28;20490;-64
2021/12/13 00:40:47;;;;;;;5.50;2.83;;;6.20;90.30;;;;;;5057867;28;20048;-64
2021/12/13 00:43:20;;;;;;;5.22;2.92;;;6.20;90.30;;;;;;5068939;28;20071;-67
2021/12/13 00:45:53;;;;;;;6.15;3.80;;;6.20;90.30;;;;;;5059715;28;20223;-65
2021/12/13 00:48:21;;;;;;;5.63;3.05;;;6.30;90.20;;;;;;5062823;28;20127;-66
2021/12/13 00:50:54;;;;;;;5.28;2.63;;;6.30;90.20;;;;;;5067341;28;20041;-66
2021/12/13 00:53:23;;;;;;;7.05;3.00;;;6.30;90.20;;;;;;5066443;28;20051;-69
2021/12/13 00:55:51;;;;;;;5.80;2.67;;;6.30;90.20;;;;;;5062502;28;20052;-67
2021/12/13 00:58:20;;;;;;;7.38;3.13;;;6.30;90.20;;;;;;5061080;28;20451;-66
2021/12/13 01:00:51;;;;;;;6.28;3.20;;;6.30;90.30;;;;;;5056147;28;20041;-67
2021/12/13 01:03:21;;;;;;;6.13;2.75;;;6.30;90.30;;;;;;5062369;28;20041;-67
2021/12/13 01:06:13;;;;;;;5.50;2.80;;;6.30;90.30;;;;;;5062315;28;20044;-66
2021/12/13 01:09:31;;;;;;;7.55;3.38;;;6.30;90.30;;;;;;5059393;28;20064;-67
2021/12/13 01:12:01;;;;;;;5.40;2.60;;;6.30;90.30;;;;;;5022456;28;20064;-66
2021/12/13 01:14:52;;;;;;;5.78;3.10;;;6.30;90.30;;;;;;5061598;28;20048;-67
2021/12/13 01:17:28;;;;;;;6.70;2.95;;;6.30;90.40;;;;;;5059296;28;20068;-66
2021/12/13 01:20:05;;;;;;;6.25;2.83;;;6.30;90.40;;;;;;5057136;28;20044;-66
2021/12/13 01:22:44;;;;;;;6.00;3.83;;;6.40;90.40;;;;;;5062671;28;20043;-66
2021/12/13 01:25:25;;;;;;;5.28;2.47;;;6.30;90.30;;;;;;5063299;28;20520;-65
2021/12/13 01:28:01;;;;;;;5.60;2.65;;;6.40;90.40;;;;;;5060740;28;20046;-66
2021/12/13 01:30:35;;;;;;;5.30;3.25;;;6.30;90.40;;;;;;5066318;28;20044;-65
2021/12/13 01:33:04;;;;;;;5.95;3.30;;;6.40;90.40;;;;;;5066423;28;20040;-65
2021/12/13 01:35:41;;;;;;;6.38;2.88;;;6.30;90.50;;;;;;5066101;28;20044;-67
2021/12/13 01:38:14;;;;;;;6.25;3.20;;;6.40;90.50;;;;;;5067319;28;20069;-67
2021/12/13 01:40:46;;;;;;;5.05;3.28;;;6.30;90.50;;;;;;5063559;28;20036;-66
2021/12/13 01:43:15;;;;;;;5.55;2.92;;;6.40;90.50;;;;;;5066267;28;20032;-66
2021/12/13 01:45:45;;;;;;;6.13;3.10;;;6.40;90.60;;;;;;5067382;28;20043;-66
2021/12/13 01:48:19;;;;;;;5.77;3.03;;;6.40;90.50;;;;;;5066039;28;20051;-67
2021/12/13 01:50:52;;;;;;;6.88;3.20;;;6.40;90.50;;;;;;5066257;28;20110;-65
2021/12/13 01:53:32;;;;;;;6.57;2.65;;;6.40;90.60;;;;;;5066198;28;20054;-66
2021/12/13 01:56:09;;;;;;;8.18;3.65;;;6.40;90.60;;;;;;5082029;28;20398;-67
2021/12/13 01:58:43;;;;;;;5.95;3.20;;;6.40;90.60;;;;;;5081575;28;20048;-65
2021/12/13 02:01:16;;;;;;;5.72;2.90;;;6.40;90.60;;;;;;5062657;28;20059;-65
2021/12/13 02:03:54;;;;;;;5.75;3.75;;;6.40;90.60;;;;;;5066716;28;20159;-68
2021/12/13 02:06:36;;;;;;;5.80;3.22;;;6.40;90.50;;;;;;5062725;28;20541;-67
2021/12/13 02:09:09;;;;;;;5.55;2.78;;;6.40;90.50;;;;;;5066740;28;20284;-69
2021/12/13 02:11:36;;;;;;;6.90;3.13;;;6.40;90.50;;;;;;5068678;28;20041;-67
2021/12/13 02:14:11;;;;;;;8.48;3.55;;;6.40;90.50;;;;;;5055212;28;20041;-65
2021/12/13 02:17:08;;;;;;;5.45;3.17;;;6.40;90.40;;;;;;5070481;28;20122;-67
2021/12/13 02:19:40;;;;;;;5.53;2.67;;;6.40;90.40;;;;;;5067952;28;20040;-67
2021/12/13 02:22:40;;;;;;;6.80;3.28;;;6.40;90.40;;;;;;5070749;28;20127;-66
2021/12/13 02:25:16;;;;;;;6.40;3.20;;;6.40;90.50;;;;;;5064756;28;20040;-67
2021/12/13 02:27:50;;;;;;;5.53;3.03;;;6.40;90.40;;;;;;5068514;28;20567;-67
2021/12/13 02:30:22;;;;;;;5.90;3.25;;;6.40;90.40;;;;;;5067534;28;20043;-66
2021/12/13 02:32:49;;;;;;;6.30;2.97;;;6.50;90.50;;;;;;5068996;28;20075;-66
2021/12/13 02:35:20;;;;;;;5.75;3.15;;;6.50;90.40;;;;;;5061560;28;20040;-66
2021/12/13 02:37:47;;;;;;;6.80;3.63;;;6.50;90.40;;;;;;5067490;28;20054;-65
2021/12/13 02:40:18;;;;;;;6.10;3.20;;;6.50;90.40;;;;;;5066988;28;20425;-66
2021/12/13 02:42:47;;;;;;;6.45;3.30;;;6.40;90.40;;;;;;5077708;28;20425;-67
2021/12/13 02:45:18;;;;;;;5.57;3.10;;;6.40;90.30;;;;;;5062215;28;20732;-67
2021/12/13 02:47:51;;;;;;;6.07;2.75;;;6.50;90.40;;;;;;5063237;28;20036;-69
2021/12/13 02:50:24;;;;;;;6.55;2.80;;;6.50;90.30;;;;;;5065196;28;20094;-66
2021/12/13 02:52:52;;;;;;;6.03;2.83;;;6.50;90.30;;;;;;5063242;28;20052;-67
2021/12/13 02:55:28;;;;;;;7.28;3.45;;;6.50;90.30;;;;;;5064959;28;20063;-66
2021/12/13 02:57:57;;;;;;;6.75;3.08;;;6.50;90.40;;;;;;5063400;28;20402;-65
2021/12/13 03:00:31;;;;;;;6.40;2.92;;;6.50;90.40;;;;;;5059756;28;20520;-65
2021/12/13 03:03:02;;;;;;;5.38;3.00;;;6.50;90.30;;;;;;5063617;28;20049;-67
2021/12/13 03:05:36;;;;;;;8.05;3.83;;;6.50;90.40;;;;;;5063827;28;20051;-66
2021/12/13 03:08:09;;;;;;;6.13;3.20;;;6.50;90.40;;;;;;5061759;28;20050;-67
2021/12/13 03:10:43;;;;;;;7.30;3.38;;;6.50;90.40;;;;;;5061896;28;20044;-68
2021/12/13 03:13:11;;;;;;;6.38;3.03;;;6.50;90.40;;;;;;5061768;28;20052;-67
2021/12/13 03:15:38;;;;;;;6.05;3.05;;;6.60;90.40;;;;;;5062279;28;20040;-67
2021/12/13 03:18:11;;;;;;;6.90;3.40;;;6.50;90.40;;;;;;5066376;28;20155;-68
2021/12/13 03:21:03;;;;;;;6.43;3.28;;;6.60;90.40;;;;;;5063404;28;20060;-68
2021/12/13 03:23:49;;;;;;;5.63;2.60;;;6.60;90.30;;;;;;5066009;28;20401;-68
2021/12/13 03:26:47;;;;;;;6.50;2.80;;;6.50;90.30;;;;;;5068895;28;20044;-68
2021/12/13 03:29:20;;;;;;;6.63;3.25;;;6.50;90.20;;;;;;5066474;28;20063;-66
2021/12/13 03:31:50;;;;;;;7.75;3.45;;;6.50;90.20;;;;;;5067900;28;20036;-66
2021/12/13 03:34:21;;;;;;;5.97;3.53;;;6.50;90.20;;;;;;5068545;28;20501;-67
2021/12/13 03:36:58;;;;;;;6.07;3.08;;;6.50;90.10;;;;;;5067951;28;20056;-66
2021/12/13 03:39:30;;;;;;;8.20;3.67;;;6.50;90.20;;;;;;5068887;28;20040;-69
2021/12/13 03:42:00;;;;;;;6.25;2.78;;;6.50;90.20;;;;;;5065265;28;20044;-66
2021/12/13 03:44:33;;;;;;;7.25;3.53;;;6.50;90.20;;;;;;5066025;28;20055;-68
2021/12/13 03:47:08;;;;;;;6.03;3.15;;;6.50;90.20;;;;;;5068010;28;20048;-66
2021/12/13 03:49:41;;;;;;;6.25;2.85;;;6.50;90.20;;;;;;5070011;28;20051;-67
2021/12/13 03:52:11;;;;;;;6.50;3.25;;;6.60;90.20;;;;;;5063842;28;20083;-67
2021/12/13 03:54:40;;;;;;;9.77;3.85;;;6.60;90.20;;;;;;5061159;28;20129;-66
2021/12/13 03:57:09;;;;;;;8.02;3.40;;;6.60;90.20;;;;;;5062693;28;20112;-66
2021/12/13 03:59:40;;;;;;;8.45;3.85;;;6.60;90.30;;;;;;5062606;28;20676;-67
2021/12/13 04:02:10;;;;;;;7.13;3.22;;;6.60;90.30;;;;;;5062437;28;20033;-69
2021/12/13 04:04:41;;;;;;;6.87;3.30;;;6.60;90.20;;;;;;5062960;28;20585;-66
2021/12/13 04:07:12;;;;;;;7.55;3.80;;;6.60;90.20;;;;;;5061225;28;20404;-67
2021/12/13 04:09:39;;;;;;;6.75;3.42;;;6.60;90.20;;;;;;5063245;28;20074;-67
2021/12/13 04:12:09;;;;;;;8.23;3.28;;;6.60;90.20;;;;;;5060526;28;20051;-66
2021/12/13 04:14:55;;;;;;;5.28;2.70;;;6.60;90.20;;;;;;5062079;28;20049;-66
2021/12/13 04:17:37;;;;;;;7.35;3.13;;;6.60;90.20;;;;;;5066783;28;20042;-66
2021/12/13 04:20:10;;;;;;;7.13;2.70;;;6.60;90.20;;;;;;5069875;28;20076;-67
2021/12/13 04:22:41;;;;;;;7.15;3.42;;;6.60;90.20;;;;;;5067405;28;20053;-67
2021/12/13 04:25:09;;;;;;;;;;;6.60;90.20;;;;;;5062813;28;20078;-67
2021/12/13 04:27:41;;;;;;;5.40;3.13;;;6.60;90.20;;;;;;5067287;28;19939;-68
2021/12/13 04:30:15;;;;;;;6.65;3.50;;;6.60;90.20;;;;;;5069375;28;20040;-68
2021/12/13 04:32:46;;;;;;;6.88;3.42;;;6.60;90.20;;;;;;5068297;28;20045;-68
2021/12/13 04:35:14;;;;;;;;;;;6.60;90.20;;;;;;5067823;28;20040;-67
2021/12/13 04:37:44;;;;;;;6.88;2.83;;;6.60;90.30;;;;;;5082859;28;19975;-66
2021/12/13 04:40:14;;;;;;;7.70;3.40;;;6.60;90.30;;;;;;5068371;28;20056;-68
2021/12/13 04:42:44;;;;;;;8.93;3.75;;;6.60;90.50;;;;;;5068157;28;20489;-65
2021/12/13 04:45:14;;;;;;;9.15;3.67;;;6.60;90.50;;;;;;5068648;28;20097;-66
2021/12/13 04:47:49;;;;;;;9.40;3.88;;;6.60;90.50;;;;;;5068806;28;20047;-68
2021/12/13 04:50:19;;;;;;;7.13;3.92;;;6.60;90.50;;;;;;5067221;28;20048;-67
2021/12/13 04:52:46;;;;;;;;;;;6.60;90.60;;;;;;5067604;28;20059;-68
2021/12/13 04:55:17;;;;;;;8.38;3.65;;;6.60;90.60;;;;;;5066386;28;19966;-69
2021/12/13 04:57:48;;;;;;;8.73;3.75;;;6.60;90.50;;;;;;5061667;28;20040;-67
2021/12/13 05:00:19;;;;;;;8.05;4.25;;;6.60;90.50;;;;;;5058425;28;20048;-67
2021/12/13 05:02:50;;;;;;;8.30;3.40;;;6.70;90.50;;;;;;5058922;28;20037;-66
2021/12/13 05:05:20;;;;;;;8.15;4.07;;;6.60;90.60;;;;;;5061171;28;20379;-66
2021/12/13 05:07:50;;;;;;;7.57;4.00;;;6.70;90.60;;;;;;5061732;28;20490;-67
2021/12/13 05:10:18;;;;;;;6.97;3.58;;;6.70;90.70;;;;;;5059871;28;20165;-68
2021/12/13 05:13:05;;;;;;;6.80;3.63;;;6.70;90.60;;;;;;5061328;28;20486;-65
2021/12/13 05:15:34;;;;;;;8.32;4.22;;;6.70;90.60;;;;;;5062427;28;20046;-68
2021/12/13 05:18:05;;;;;;;7.90;3.33;;;6.70;90.60;;;;;;5057435;28;20273;-68
2021/12/13 05:20:37;;;;;;;7.82;3.25;;;6.70;90.50;;;;;;5054514;28;20052;-67
2021/12/13 05:23:07;;;;;;;7.03;3.78;;;6.60;90.60;;;;;;5055579;28;20048;-67
2021/12/13 05:25:36;;;;;;;7.73;3.97;;;6.70;90.60;;;;;;5062354;28;20050;-67
2021/12/13 05:28:08;;;;;;;8.98;4.20;;;6.70;90.70;;;;;;5064221;28;20482;-67
2021/12/13 05:30:46;;;;;;;6.93;3.70;;;6.70;90.70;;;;;;5068413;28;20553;-68
2021/12/13 05:33:18;;;;;;;7.70;3.58;;;6.70;90.70;;;;;;5068292;28;20128;-67
2021/12/13 05:35:49;;;;;;;8.02;3.17;;;6.70;90.70;;;;;;5068470;28;20062;-66
2021/12/13 05:38:32;;;;;;;5.53;3.25;;;6.70;90.70;;;;;;5067345;28;20043;-67
2021/12/13 05:41:03;;;;;;;7.28;2.97;;;6.70;90.70;;;;;;5065762;28;20520;-66
2021/12/13 05:43:38;;;;;;;7.20;3.10;;;6.70;90.70;;;;;;5067948;28;20113;-67
2021/12/13 05:46:09;;;;;;;8.32;4.00;;;6.70;90.70;;;;;;5067383;28;20051;-66
2021/12/13 05:48:55;;;;;;;9.93;2.92;;;6.70;90.70;;;;;;5067841;28;20520;-66
2021/12/13 05:51:27;;;;;;;6.88;3.20;;;6.70;90.60;;;;;;5067803;28;20051;-66
2021/12/13 05:53:58;;;;;;;8.07;3.60;;;6.70;90.70;;;;;;5068891;28;20044;-69
2021/12/13 05:56:30;;;;;;;7.30;3.33;;;6.70;90.60;;;;;;5065140;28;20037;-69
2021/12/13 05:59:09;;;;;;;7.75;3.42;;;6.70;90.60;;;;;;5068421;28;20082;-67
2021/12/13 06:01:42;;;;;;;8.30;3.90;;;6.70;90.70;;;;;;5066174;28;20052;-66
2021/12/13 06:04:17;;;;;;;7.20;3.50;;;6.70;90.70;;;;;;5068991;28;20032;-67
2021/12/13 06:06:46;;;;;;;7.00;3.95;;;6.70;90.60;;;;;;5067878;28;20040;-66
2021/12/13 06:09:44;;;;;;;9.15;4.15;;;6.70;90.70;;;;;;5067925;28;20042;-67
2021/12/13 06:12:15;;;;;;;9.43;3.30;;;6.70;90.70;;;;;;5068146;28;20043;-65
2021/12/13 06:14:44;;;;;;;9.07;4.43;;;6.70;90.70;;;;;;5068446;28;20149;-69
2021/12/13 06:17:17;;;;;;;8.23;3.90;;;6.70;90.80;;;;;;5064331;28;20048;-67
2021/12/13 06:19:56;;;;;;;8.35;3.75;;;6.70;90.80;;;;;;5068523;28;20032;-65
2021/12/13 06:22:26;;;;;;;8.77;3.30;;;6.70;90.70;;;;;;5067884;28;20067;-66
2021/12/13 06:24:55;;;;;;;8.95;3.53;;;6.70;90.80;;;;;;5068358;28;20047;-66
2021/12/13 06:27:24;;;;;;;6.93;3.03;;;6.70;90.70;;;;;;5066271;28;20047;-66
2021/12/13 06:30:09;;;;;;;6.13;3.22;;;6.80;90.80;;;;;;5066162;28;20047;-66
2021/12/13 06:32:43;;;;;;;7.85;3.70;;;6.70;90.70;;;;;;5064924;28;20078;-67
2021/12/13 06:35:36;;;;;;;7.35;3.35;;;6.70;90.70;;;;;;5064139;28;20059;-68
2021/12/13 06:38:33;;;;;;;7.93;4.03;;;6.70;90.70;;;;;;5063076;28;20101;-68
2021/12/13 06:41:06;;;;;;;7.90;3.85;;;6.80;90.70;;;;;;5064405;28;20044;-67
2021/12/13 06:43:35;;;;;;;6.82;3.28;;;6.80;90.70;;;;;;5066644;28;20291;-68
2021/12/13 06:46:07;;;;;;;8.60;3.97;;;6.70;90.60;;;;;;5065673;28;20139;-66
2021/12/13 06:48:37;;;;;;;9.05;3.83;;;6.70;90.70;;;;;;5065485;28;20053;-67
2021/12/13 06:51:05;;;;;;;7.07;3.42;;;6.70;90.70;;;;;;5067035;28;20055;-71
2021/12/13 06:53:34;;;;;;;8.30;3.30;;;6.70;90.70;;;;;;5066136;28;20049;-69
2021/12/13 06:56:20;;;;;;;8.02;3.53;;;6.70;90.60;;;;;;5066295;28;20432;-67
2021/12/13 06:58:51;;;;;;;8.52;4.07;;;6.80;90.60;;;;;;5066639;28;20062;-67
2021/12/13 07:01:20;;;;;;;7.22;3.78;;;6.70;90.60;;;;;;5068902;28;20051;-67
2021/12/13 07:03:54;;;;;;;9.45;4.15;;;6.70;90.50;;;;;;5069297;28;20040;-67
2021/12/13 07:06:24;;;;;;;9.25;3.92;;;6.80;90.60;;;;;;5071097;28;20135;-68
2021/12/13 07:09:07;;;;;;;8.90;3.55;;;6.80;90.50;;;;;;5071683;28;20409;-67
2021/12/13 07:11:50;;;;;;;7.88;3.38;;;6.80;90.50;;;;;;5068119;28;20047;-67
2021/12/13 07:14:19;;;;;;;8.20;3.30;;;6.70;90.50;;;;;;5067114;28;20037;-68
2021/12/13 07:16:53;;;;;;;7.38;3.42;;;6.80;90.50;;;;;;5064374;28;20044;-67
2021/12/13 07:19:22;;;;;;;9.60;4.28;;;6.80;90.60;;;;;;5061986;28;20036;-69
2021/12/13 07:21:56;;;;;;;8.90;3.97;;;6.80;90.60;;;;;;5061606;28;20599;-65
2021/12/13 07:24:35;;;;;;;7.00;3.35;;;6.80;90.60;;;;;;5063104;28;20045;-67
2021/12/13 07:27:06;;;;;;;10.43;3.58;;;6.80;90.70;;;;;;5064599;28;20078;-66
2021/12/13 07:29:40;;;;;;;10.05;3.95;;;6.80;90.60;;;;;;5062829;28;20044;-66
2021/12/13 07:32:14;;;;;;;8.20;3.70;;;6.80;90.60;;;;;;5063816;28;20394;-68
2021/12/13 07:34:59;;;;;;;8.82;3.75;;;6.80;90.60;;;;;;5064399;28;20430;-67
2021/12/13 07:37:46;;;;;;;9.60;4.13;;;6.80;90.70;;;;;;5063703;28;20054;-68
2021/12/13 07:40:33;;;;;;;8.85;4.13;;;6.80;90.70;;;;;;5063460;28;20115;-66
2021/12/13 07:43:10;;;;;;;8.15;3.83;;;6.80;90.60;;;;;;5064888;28;20124;-66
2021/12/13 07:45:44;;;;;;;8.35;3.33;;;6.80;90.80;;;;;;5062158;28;20124;-67
2021/12/13 07:48:16;;;;;;;5.55;3.42;;;6.80;90.80;;;;;;5064083;28;20052;-66
2021/12/13 07:50:45;;;;;;;9.88;3.30;;;6.80;90.70;;;;;;5063157;28;20770;-67
2021/12/13 07:53:18;;;;;;;6.47;3.05;;;6.90;90.70;;;;;;5064195;28;20074;-67
2021/12/13 07:55:49;;;;;;;7.15;3.30;;;6.90;90.80;;;;;;5061830;28;20040;-67
2021/12/13 07:58:31;;;;;;;7.30;3.20;;;6.90;90.70;;;;;;5062416;28;20041;-67
2021/12/13 08:01:09;;;;;;;5.53;2.55;;;6.90;90.80;;;;;;5058044;28;20409;-65
2021/12/13 08:03:45;;;;;;;7.25;2.92;;;6.90;90.90;;;;;;5062868;28;20040;-67
2021/12/13 08:06:12;;;;;;;7.28;3.15;;;6.90;90.90;;;;;;5062745;28;20131;-69
2021/12/13 08:08:48;;;;;;;6.38;2.75;;;6.90;90.80;;;;;;5062360;28;20033;-71
2021/12/13 08:11:16;;;;;;;7.05;3.65;;;6.90;90.90;;;;;;5059579;28;20045;-66
2021/12/13 08:13:57;;;;;;;5.88;2.92;;;6.90;90.80;;;;;;5062457;28;20051;-66
2021/12/13 08:16:31;;;;;;;5.35;2.60;;;6.90;90.80;;;;;;5059657;28;20062;-68
2021/12/13 08:19:08;;;;;;;6.95;2.80;;;6.90;90.90;;;;;;5060763;28;20418;-67
2021/12/13 08:21:42;;;;;;;6.10;3.05;;;7.00;90.90;;;;;;5060280;28;20067;-66
2021/12/13 08:24:20;;;;;;;6.50;2.60;;;7.00;90.90;;;;;;5061586;28;20068;-67
2021/12/13 08:26:47;;;;;;;9.60;3.22;;;7.00;90.90;;;;;;5061147;28;20037;-68
2021/12/13 08:29:21;;;;;;;6.95;3.33;;;7.00;90.90;;;;;;5061520;28;20045;-68
2021/12/13 08:31:51;;;;;;;7.40;3.03;;;7.00;91.00;;;;;;5062426;28;20040;-66
2021/12/13 08:34:29;;;;;;;6.68;3.08;;;7.10;91.00;;;;;;5060781;28;20102;-68
2021/12/13 08:36:57;;;;;;;6.75;2.97;;;7.10;90.90;;;;;;5059295;28;20426;-66
2021/12/13 08:39:27;;;;;;;8.15;2.85;;;7.10;90.90;;;;;;5059045;28;20135;-67
2021/12/13 08:41:57;;;;;;;5.65;2.75;;;7.10;90.90;;;;;;5059294;28;20161;-68
2021/12/13 08:44:28;;;;;;;6.30;2.93;;;7.20;91.00;;;;;;5060673;28;20044;-68
2021/12/13 08:46:58;;;;;;;5.95;2.78;;;7.20;90.90;;;;;;5061962;28;20098;-67
2021/12/13 08:49:35;;;;;;;4.72;2.78;;;7.20;90.90;;;;;;5066005;28;20064;-68
2021/12/13 08:52:12;;;;;;;4.78;2.42;;;7.20;91.00;;;;;;5069140;28;20057;-68
2021/12/13 08:54:46;;;;;;;7.50;2.45;;;7.20;90.90;;;;;;5063731;28;20048;-67
2021/12/13 08:57:31;;;;;;;5.32;2.30;;;7.20;90.90;;;;;;5078221;28;20383;-68
2021/12/13 08:59:59;;;;;;;4.78;2.38;;;7.30;91.00;;;;;;5061715;28;20053;-66
2021/12/13 09:02:29;;;;;;;3.63;1.70;;;7.30;90.90;;;;;;5061090;28;20048;-69
2021/12/13 09:05:02;;;;;;;7.60;2.35;;;7.30;90.90;;;;;;5063119;28;20036;-68
2021/12/13 09:07:30;;;;;;;5.13;2.20;;;7.30;91.00;;;;;;5062135;28;20151;-68
2021/12/13 09:09:57;;;;;;;5.68;3.05;;;7.30;91.00;;;;;;5060807;28;20032;-67
2021/12/13 09:12:34;;;;;;;3.92;2.08;;;7.40;91.00;;;;;;5062253;28;20047;-67
2021/12/13 09:15:03;;;;;;;6.20;2.35;;;7.40;91.00;;;;;;5061533;28;20120;-69
2021/12/13 09:17:36;;;;;;;3.70;2.03;;;7.40;91.00;;;;;;5058304;28;20037;-67
2021/12/13 09:20:13;;;;;;;5.28;2.22;;;7.40;91.00;;;;;;5058996;28;20150;-67
2021/12/13 09:22:45;;;;;;;6.85;2.58;;;7.40;90.90;;;;;;5076841;28;20045;-68
2021/12/13 09:25:16;;;;;;;6.15;2.67;;;7.40;91.00;;;;;;5060322;28;20043;-68
2021/12/13 09:27:50;;;;;;;5.20;2.63;;;7.40;91.00;;;;;;5060412;28;20123;-68
2021/12/13 09:30:33;;;;;;;4.53;2.05;;;7.50;91.10;;;;;;5061063;28;20067;-70
2021/12/13 09:33:02;;;;;;;6.10;1.98;;;7.50;91.00;;;;;;5062268;28;20098;-67
2021/12/13 09:35:40;;;;;;;4.38;2.30;;;7.50;91.10;;;;;;5061538;28;20049;-69
2021/12/13 09:38:28;;;;;;;4.28;2.17;;;7.60;91.00;;;;;;5058506;28;20639;-67
2021/12/13 09:41:02;;;;;;;4.60;1.98;;;7.60;91.00;;;;;;5058409;28;20041;-68
2021/12/13 09:43:45;;;;;;;4.28;1.90;;;7.60;91.00;;;;;;5060279;28;20032;-67
2021/12/13 09:46:15;;;;;;;4.30;2.10;;;7.60;91.00;;;;;;5061348;28;20391;-68
2021/12/13 09:48:45;;;;;;;3.80;1.58;;;7.60;90.90;;;;;;5060326;28;20070;-68
2021/12/13 09:51:18;;;;;;;4.60;2.28;;;7.70;90.90;;;;;;5058428;28;20565;-68
2021/12/13 09:53:49;;;;;;;5.38;2.42;;;7.70;90.80;;;;;;5060235;28;20045;-69
2021/12/13 09:56:16;;;;;;;;;;;7.70;90.80;;;;;;5059852;28;20063;-69
2021/12/13 09:58:46;;;;;;;8.32;3.00;;;7.70;90.80;;;;;;5060333;28;19946;-67
2021/12/13 10:01:16;;;;;;;6.50;2.70;;;7.70;90.80;;;;;;5058396;28;20074;-68
2021/12/13 10:03:49;;;;;;;10.10;3.70;;;7.70;90.80;;;;;;5057512;28;20496;-69
2021/12/13 10:06:20;;;;;;;5.30;2.95;;;7.70;90.70;;;;;;5059578;28;20063;-66
2021/12/13 10:08:51;;;;;;;5.78;2.60;;;7.70;90.80;;;;;;5058832;28;20239;-69
2021/12/13 10:11:24;;;;;;;5.22;2.80;;;7.80;90.70;;;;;;5059535;28;20040;-69
2021/12/13 10:13:52;;;;;;;9.15;3.72;;;7.80;90.70;;;;;;5061962;28;20486;-69
2021/12/13 10:16:22;;;;;;;6.53;3.30;;;7.80;90.60;;;;;;5059641;28;20040;-68
2021/12/13 10:18:52;;;;;;;6.35;2.75;;;7.90;90.60;;;;;;5057322;28;20048;-66
2021/12/13 10:21:23;;;;;;;7.65;3.03;;;7.80;90.60;;;;;;5059214;28;20047;-69
2021/12/13 10:23:54;;;;;;;5.63;2.50;;;7.90;90.60;;;;;;5059119;28;20128;-69
2021/12/13 10:26:25;;;;;;;7.13;2.63;;;7.90;90.50;;;;;;5059005;28;20150;-68
2021/12/13 10:28:55;;;;;;;6.57;2.28;;;7.90;90.40;;;;;;5062060;28;20048;-69
2021/12/13 10:31:28;;;;;;;4.43;2.20;;;8.00;90.30;;;;;;5061533;28;20045;-66
2021/12/13 10:33:58;;;;;;;4.88;2.55;;;7.90;90.30;;;;;;5061682;28;20131;-68
2021/12/13 10:36:28;;;;;;;5.97;2.15;;;8.00;90.20;;;;;;5064785;28;20042;-67
2021/12/13 10:38:58;;;;;;;5.18;2.97;;;8.00;90.10;;;;;;5064508;28;20051;-68
2021/12/13 10:41:29;;;;;;;5.07;2.60;;;8.00;90.10;;;;;;5061103;28;20107;-70
2021/12/13 10:43:59;;;;;;;8.35;4.20;;;8.10;90.10;;;;;;5064846;28;20090;-69
2021/12/13 10:46:30;;;;;;;13.00;4.78;;;8.10;90.00;;;;;;5064966;28;20435;-65
2021/12/13 10:49:00;;;;;;;7.80;3.03;;;8.10;90.00;;;;;;5063540;28;20151;-69
2021/12/13 10:51:33;;;;;;;7.20;3.25;;;8.20;90.00;;;;;;5063023;28;20402;-67
2021/12/13 10:54:05;;;;;;;5.32;2.42;;;8.20;89.90;;;;;;5065978;28;20448;-68
2021/12/13 10:56:40;;;;;;;6.55;3.05;;;8.20;89.90;;;;;;5063968;28;20044;-69
2021/12/13 10:59:16;;;;;;;7.72;2.55;;;8.20;89.80;;;;;;5056677;28;20040;-67
2021/12/13 11:01:45;;;;;;;6.90;3.08;;;8.20;89.80;;;;;;5061120;28;20039;-67
2021/12/13 11:04:16;;;;;;;5.38;2.65;;;8.20;89.90;;;;;;5063475;28;20462;-65
2021/12/13 11:06:46;;;;;;;5.28;2.45;;;8.20;89.90;;;;;;5063896;28;20102;-68
2021/12/13 11:09:18;;;;;;;4.80;2.28;;;8.20;89.90;;;;;;5064195;28;20051;-69
2021/12/13 11:11:49;;;;;;;8.15;3.15;;;8.20;89.90;;;;;;5062576;28;20079;-68
2021/12/13 11:14:20;;;;;;;5.97;2.85;;;8.20;89.90;;;;;;5063153;28;20068;-67
2021/12/13 11:16:52;;;;;;;5.88;2.88;;;8.20;89.90;;;;;;5066308;28;20045;-67
2021/12/13 11:19:23;;;;;;;6.97;3.30;;;8.20;89.90;;;;;;5065853;28;20406;-66
2021/12/13 11:22:00;;;;;;;5.47;2.80;;;8.20;89.90;;;;;;5065844;28;20507;-70
2021/12/13 11:24:36;;;;;;;5.20;3.15;;;8.20;89.90;;;;;;5064890;28;20486;-68
2021/12/13 11:27:08;;;;;;;7.25;3.22;;;8.20;89.90;;;;;;5061281;28;20048;-67
2021/12/13 11:29:37;;;;;;;5.93;3.17;;;8.30;90.00;;;;;;5061514;28;20673;-66
2021/12/13 11:32:50;;;;;;;7.82;3.60;;;8.30;90.00;;;;;;5061116;28;20463;-68
2021/12/13 11:35:54;;;;;;;8.23;4.20;;;8.30;90.00;;;;;;5063677;28;20116;-68
2021/12/13 11:38:51;;;;;;;5.90;2.70;;;8.30;89.80;;;;;;5062262;28;20303;-68
2021/12/13 11:41:44;;;;;;;7.05;3.25;;;8.30;89.90;;;;;;5057450;28;20226;-68
2021/12/13 11:44:39;;;;;;;7.07;3.40;;;8.30;89.90;;;;;;5061138;28;20043;-67
2021/12/13 11:47:38;;;;;;;7.35;3.75;;;8.30;89.80;;;;;;5059352;28;20629;-66
2021/12/13 11:50:54;;;;;;;8.23;3.42;;;8.30;89.80;;;;;;5062321;28;20048;-69
2021/12/13 11:53:57;;;;;;;8.70;3.85;;;8.30;89.80;;;;;;5064226;28;20062;-67
2021/12/13 11:56:54;;;;;;;7.78;3.22;;;8.30;89.80;;;;;;5061351;28;20048;-67
2021/12/13 11:59:38;;;;;;;7.72;3.35;;;8.30;89.80;;;;;;5063823;28;20332;-68
2021/12/13 12:02:17;;;;;;;8.88;3.97;;;8.30;89.80;;;;;;5058395;28;20041;-68
2021/12/13 12:05:23;;;;;;;7.80;3.53;;;8.40;89.70;;;;;;5056114;28;20044;-69
2021/12/13 12:08:19;;;;;;;7.25;3.22;;;8.40;89.80;;;;;;5061697;28;20045;-67
2021/12/13 12:11:18;;;;;;;7.95;3.72;;;8.40;89.80;;;;;;5058917;28;20056;-68
2021/12/13 12:14:01;;;;;;;7.88;4.38;;;8.30;89.70;;;;;;5061447;28;20048;-67
2021/12/13 12:16:31;;;;;;;10.52;4.55;;;8.40;89.80;;;;;;5061448;28;20041;-68
2021/12/13 12:18:58;;;;;;;7.53;3.88;;;8.40;89.80;;;;;;5061919;28;20120;-68
2021/12/13 12:21:50;;;;;;;8.15;3.80;;;8.40;89.80;;;;;;5060858;28;20048;-68
2021/12/13 12:24:21;;;;;;;8.73;4.13;;;8.40;89.70;;;;;;5062717;28;20130;-69
2021/12/13 12:26:52;;;;;;;9.02;4.07;;;8.50;89.80;;;;;;5059585;28;20875;-68
2021/12/13 12:29:25;;;;;;;9.90;3.97;;;8.40;89.70;;;;;;5060624;28;20118;-67
2021/12/13 12:31:59;;;;;;;9.07;4.57;;;8.50;89.80;;;;;;5060540;28;20044;-67
2021/12/13 12:34:26;;;;;;;10.10;4.28;;;8.50;89.70;;;;;;5062559;28;20128;-67
2021/12/13 12:37:30;;;;;;;9.68;4.03;;;8.50;89.70;;;;;;5062855;28;20047;-67
2021/12/13 12:40:21;;;;;;;8.98;3.97;;;8.50;89.70;;;;;;5061123;28;20113;-68
2021/12/13 12:42:49;;;;;;;8.32;3.15;;;8.50;89.80;;;;;;5058707;28;20447;-68
2021/12/13 12:45:25;;;;;;;7.40;3.47;;;8.50;89.90;;;;;;5063478;28;20059;-67
2021/12/13 12:48:27;;;;;;;6.68;2.95;;;8.50;90.10;;;;;;5062405;28;20402;-67
2021/12/13 12:51:06;;;;;;;5.32;2.83;;;8.50;90.10;;;;;;5069162;28;20063;-68
2021/12/13 12:53:44;;;;;;;6.10;2.72;;;8.50;90.10;;;;;;5067342;28;20044;-67
2021/12/13 12:56:16;;;;;;;6.00;2.65;;;8.50;90.20;;;;;;5061912;28;20049;-67
2021/12/13 12:58:50;;;;;;;9.07;3.40;;;8.50;90.20;;;;;;5059500;28;20127;-68
2021/12/13 13:01:22;;;;;;;11.32;2.80;;;8.50;90.20;;;;;;5061043;28;21491;-68
2021/12/13 13:03:49;;;;;;;9.43;3.22;;;8.40;90.20;;;;;;5059947;28;20445;-68
2021/12/13 13:06:22;;;;;;;7.93;3.97;;;8.50;90.20;;;;;;5058800;28;20131;-66
2021/12/13 13:08:52;;;;;;;12.48;5.50;;;8.40;90.20;;;;;;5059933;28;20501;-66
2021/12/13 13:11:30;;;;;;;10.63;5.22;;;8.50;90.20;;;;;;5058994;28;20092;-67
2021/12/13 13:14:10;;;;;;;7.95;4.40;;;8.50;90.30;;;;;;5058787;28;20040;-68
2021/12/13 13:16:42;;;;;;;8.27;4.57;;;8.50;90.20;;;;;;5061382;28;20082;-69
2021/12/13 13:19:21;;;;;;;8.00;4.25;;;8.50;90.20;;;;;;5059652;28;20036;-67
2021/12/13 13:21:49;;;;;;;7.35;3.95;;;8.50;90.20;;;;;;5061982;28;20050;-67
2021/12/13 13:24:16;;;;;;;7.22;3.35;;;8.50;90.20;;;;;;5062443;28;20127;-70
2021/12/13 13:26:46;;;;;;;6.82;3.42;;;8.50;90.20;;;;;;5061189;28;20810;-69
2021/12/13 13:29:16;;;;;;;8.57;4.05;;;8.50;90.10;;;;;;5061464;28;20083;-68
2021/12/13 13:31:50;;;;;;;6.90;3.45;;;8.50;90.10;;;;;;5074219;28;20037;-69
2021/12/13 13:34:20;;;;;;;7.30;3.97;;;8.50;90.10;;;;;;5060378;28;21799;-69
2021/12/13 13:36:50;;;;;;;9.52;3.33;;;8.40;90.10;;;;;;5057785;28;20051;-68
2021/12/13 13:39:21;;;;;;;7.07;3.42;;;8.50;90.10;;;;;;5057660;28;20119;-66